Route Details

Aircraft Information
Group: Boeing 767
Types: B762, B763
Route Data
Distance: 2329nm
Duration: 5h 34m
Origin METAR: PHNL 100453Z 06017G23KT 10SM FEW025 FEW035 SCT250 25/18 A3008 RMK AO2 SLP186 T02500178
Dest. METAR: KSEA 100453Z 11011KT 7SM -RA OVC030 04/02 A2942 RMK AO2 SLP972 P0008 T00390017
Freight Data
(for Dec 10, 2022)
Load Factor:
42%
Manifested Cargo: 46,227lbs
Financial History
Total Freight: 359,441lbs
Average Load: 0lbs/flt
Fuel Used: 311,856lbs
Avg. Fuel Used: 0lbs/flt
Fuel Expense: $215,472
Avg. Fuel Expense: $0
Avg. Fuel Cost: $0/lbs
Total Gross Income: $676,637
Pilot Pay: $676
Total Expenses: $111,453
Total Revenue: $345,064
Average Revenue: $0

Capitol Logistics 352




PHNL
Daniel K Inouye International Airport
Honolulu, Hawaii
KSEA
Seattle-Tacoma International Airport
Seattle, Washington